Time;durP1;ratioP1;P1;durP2;ratioP2;P2;SDS_P1;SDS_P2;PMS_P1;PMS_P2;Temp;Humidity;BMP_temperature;BMP_pressure;BME280_temperature;BME280_humidity;BME280_pressure;Samples;Min_cycle;Max_cycle;Signal;HPM_P1;HPM_P2
2020/12/09 00:01:18;;;;;;;18.97;17.00;;;;;;;;;;5064250;28;20741;-57
2020/12/09 00:03:43;;;;;;;19.95;16.10;;;;;;;;;;5060310;28;20201;-59
2020/12/09 00:06:09;;;;;;;16.87;15.10;;;;;;;;;;5069911;28;20209;-57
2020/12/09 00:08:34;;;;;;;18.00;16.13;;;;;;;;;;5063502;28;20184;-57
2020/12/09 00:10:59;;;;;;;18.30;16.40;;;;;;;;;;5068613;28;20678;-57
2020/12/09 00:13:24;;;;;;;19.57;17.57;;;;;;;;;;5067568;28;20207;-57
2020/12/09 00:15:50;;;;;;;17.77;15.88;;;;;;;;;;5064166;28;20264;-57
2020/12/09 00:18:15;;;;;;;18.77;16.00;;;;;;;;;;5059137;28;20192;-58
2020/12/09 00:20:40;;;;;;;17.02;15.23;;;;;;;;;;5061101;28;20176;-58
2020/12/09 00:23:06;;;;;;;17.30;15.47;;;;;;;;;;5060683;28;20696;-57
2020/12/09 00:25:31;;;;;;;17.30;15.33;;;;;;;;;;5069748;28;20520;-58
2020/12/09 00:27:56;;;;;;;17.10;15.47;;;;;;;;;;5067685;28;20284;-58
2020/12/09 00:30:22;;;;;;;16.85;15.15;;;;;;;;;;5064065;28;20207;-57
2020/12/09 00:32:47;;;;;;;18.13;16.30;;;;;;;;;;5067960;28;20179;-57
2020/12/09 00:35:12;;;;;;;18.47;16.57;;;;;;;;;;5067569;28;20252;-58
2020/12/09 00:37:37;;;;;;;17.60;15.70;;;;;;;;;;5068914;28;20586;-58
2020/12/09 00:40:04;;;;;;;18.17;16.37;;;;;;;;;;5065405;28;20203;-57
2020/12/09 00:42:30;;;;;;;17.60;15.13;;;;;;;;;;5069380;28;20199;-57
2020/12/09 00:44:55;;;;;;;16.97;15.20;;;;;;;;;;5065906;28;20730;-58
2020/12/09 00:47:20;;;;;;;16.92;15.32;;;;;;;;;;5068897;28;20622;-58
2020/12/09 00:49:58;;;;;;;17.30;15.50;;;;;;;;;;5067141;28;20502;-58
2020/12/09 00:52:24;;;;;;;17.80;15.80;;;;;;;;;;5068103;28;20190;-58
2020/12/09 00:54:49;;;;;;;17.20;15.33;;;;;;;;;;5072044;28;21143;-58
2020/12/09 00:57:14;;;;;;;17.52;15.82;;;;;;;;;;5072465;28;20264;-57
2020/12/09 00:59:39;;;;;;;16.75;15.15;;;;;;;;;;5067605;28;20178;-57
2020/12/09 01:02:04;;;;;;;15.70;14.10;;;;;;;;;;5071523;28;20226;-57
2020/12/09 01:04:29;;;;;;;16.48;14.77;;;;;;;;;;5067263;28;20802;-58
2020/12/09 01:06:54;;;;;;;16.88;15.07;;;;;;;;;;5071477;28;20171;-58
2020/12/09 01:09:20;;;;;;;16.25;14.45;;;;;;;;;;5068980;28;20210;-58
2020/12/09 01:11:45;;;;;;;15.90;14.30;;;;;;;;;;5073317;28;20575;-57
2020/12/09 01:14:10;;;;;;;17.50;15.70;;;;;;;;;;5071287;28;20175;-57
2020/12/09 01:16:35;;;;;;;18.60;16.60;;;;;;;;;;5071079;28;20233;-57
2020/12/09 01:19:00;;;;;;;15.93;14.40;;;;;;;;;;5070239;28;20179;-57
2020/12/09 01:21:26;;;;;;;16.35;14.70;;;;;;;;;;5065304;28;20194;-58
2020/12/09 01:23:52;;;;;;;16.80;15.20;;;;;;;;;;5066029;28;20199;-57
2020/12/09 01:26:17;;;;;;;16.13;14.53;;;;;;;;;;5063774;28;20657;-57
2020/12/09 01:28:42;;;;;;;16.55;14.85;;;;;;;;;;5070674;28;20229;-58
2020/12/09 01:31:08;;;;;;;17.60;15.75;;;;;;;;;;5067142;28;20188;-57
2020/12/09 01:33:33;;;;;;;17.02;15.30;;;;;;;;;;5067709;28;20203;-58
2020/12/09 01:35:58;;;;;;;16.92;15.23;;;;;;;;;;5061243;28;20194;-58
2020/12/09 01:38:23;;;;;;;16.42;14.77;;;;;;;;;;5068402;28;20175;-58
2020/12/09 01:40:48;;;;;;;15.63;13.65;;;;;;;;;;5069351;28;20209;-58
2020/12/09 01:43:13;;;;;;;16.80;15.02;;;;;;;;;;5062133;28;20304;-58
2020/12/09 01:45:38;;;;;;;16.30;14.70;;;;;;;;;;5068291;28;20173;-58
2020/12/09 01:48:06;;;;;;;15.70;14.07;;;;;;;;;;5067524;28;20531;-57
2020/12/09 01:50:32;;;;;;;15.17;13.67;;;;;;;;;;5068144;28;20197;-57
2020/12/09 01:52:57;;;;;;;16.00;14.43;;;;;;;;;;5067649;28;21293;-57
2020/12/09 01:55:22;;;;;;;15.25;13.75;;;;;;;;;;5070554;28;20171;-57
2020/12/09 01:57:47;;;;;;;16.08;14.35;;;;;;;;;;5059819;28;20799;-57
2020/12/09 02:00:12;;;;;;;15.80;14.30;;;;;;;;;;5068655;28;20176;-57
2020/12/09 02:02:37;;;;;;;16.90;15.10;;;;;;;;;;5064335;28;20187;-57
2020/12/09 02:05:02;;;;;;;17.38;15.57;;;;;;;;;;5072451;28;20786;-57
2020/12/09 02:07:28;;;;;;;16.53;14.93;;;;;;;;;;5071516;28;20174;-57
2020/12/09 02:09:57;;;;;;;15.63;14.13;;;;;;;;;;5065206;28;20459;-58
2020/12/09 02:12:22;;;;;;;16.40;14.80;;;;;;;;;;5069577;28;20664;-57
2020/12/09 02:14:47;;;;;;;15.67;14.13;;;;;;;;;;5070791;28;20593;-58
2020/12/09 02:17:13;;;;;;;14.27;12.88;;;;;;;;;;5060079;28;20573;-57
2020/12/09 02:19:38;;;;;;;15.60;14.00;;;;;;;;;;5060766;28;20640;-57
2020/12/09 02:22:10;;;;;;;15.70;13.98;;;;;;;;;;5072927;28;20182;-57
2020/12/09 02:24:35;;;;;;;15.17;13.60;;;;;;;;;;5069558;28;20233;-57
2020/12/09 02:27:00;;;;;;;14.63;13.23;;;;;;;;;;5070918;28;21122;-58
2020/12/09 02:29:25;;;;;;;15.18;13.68;;;;;;;;;;5067607;28;20318;-57
2020/12/09 02:31:50;;;;;;;15.90;14.20;;;;;;;;;;5069025;28;20181;-57
2020/12/09 02:34:15;;;;;;;15.32;13.80;;;;;;;;;;5070384;28;20557;-57
2020/12/09 02:36:41;;;;;;;16.23;14.63;;;;;;;;;;5070894;28;20221;-57
2020/12/09 02:39:06;;;;;;;16.17;14.57;;;;;;;;;;5066899;28;20184;-57
2020/12/09 02:41:31;;;;;;;15.95;14.30;;;;;;;;;;5074865;28;20285;-57
2020/12/09 02:43:56;;;;;;;15.47;13.93;;;;;;;;;;5065478;28;20279;-57
2020/12/09 02:46:22;;;;;;;15.53;13.90;;;;;;;;;;5062562;28;20169;-58
2020/12/09 02:48:47;;;;;;;14.87;13.37;;;;;;;;;;5066013;28;20254;-57
2020/12/09 02:51:12;;;;;;;16.77;14.30;;;;;;;;;;5061017;28;20172;-57
2020/12/09 02:53:37;;;;;;;14.83;13.20;;;;;;;;;;5071489;28;20658;-58
2020/12/09 02:56:03;;;;;;;15.05;13.60;;;;;;;;;;5062578;28;20190;-57
2020/12/09 02:58:28;;;;;;;14.43;13.03;;;;;;;;;;5065637;28;20222;-57
2020/12/09 03:00:54;;;;;;;15.37;13.77;;;;;;;;;;5069054;28;20172;-58
2020/12/09 03:03:19;;;;;;;15.70;14.10;;;;;;;;;;5067557;28;20214;-57
2020/12/09 03:05:44;;;;;;;15.75;14.18;;;;;;;;;;5070162;28;20191;-57
2020/12/09 03:08:09;;;;;;;14.70;13.33;;;;;;;;;;5067375;28;20165;-57
2020/12/09 03:10:34;;;;;;;15.07;13.57;;;;;;;;;;5072244;28;20180;-57
2020/12/09 03:12:59;;;;;;;16.23;14.63;;;;;;;;;;5064669;28;20697;-58
2020/12/09 03:15:25;;;;;;;17.10;15.30;;;;;;;;;;5058832;28;20183;-57
2020/12/09 03:17:50;;;;;;;15.83;14.23;;;;;;;;;;5066098;28;20206;-58
2020/12/09 03:20:15;;;;;;;17.30;15.47;;;;;;;;;;5066468;28;20175;-57
2020/12/09 03:22:40;;;;;;;16.93;15.17;;;;;;;;;;5063774;28;20182;-57
2020/12/09 03:25:05;;;;;;;16.50;14.85;;;;;;;;;;5070000;28;20200;-57
2020/12/09 03:27:30;;;;;;;16.98;15.15;;;;;;;;;;5068966;28;20238;-57
2020/12/09 03:29:56;;;;;;;16.58;14.82;;;;;;;;;;5068511;28;20207;-58
2020/12/09 03:32:21;;;;;;;15.32;13.73;;;;;;;;;;5070359;28;20180;-58
2020/12/09 03:34:46;;;;;;;16.67;14.40;;;;;;;;;;5058389;28;20184;-57
2020/12/09 03:37:11;;;;;;;17.55;15.75;;;;;;;;;;5066165;28;20564;-58
2020/12/09 03:39:36;;;;;;;16.90;15.13;;;;;;;;;;5069885;28;20180;-58
2020/12/09 03:42:01;;;;;;;15.80;14.00;;;;;;;;;;5065661;28;20212;-58
2020/12/09 03:44:27;;;;;;;17.00;15.30;;;;;;;;;;5066744;28;20282;-57
2020/12/09 03:46:53;;;;;;;16.67;14.97;;;;;;;;;;5063100;28;20567;-57
2020/12/09 03:49:21;;;;;;;16.00;14.50;;;;;;;;;;5068274;28;20167;-57
2020/12/09 03:51:46;;;;;;;16.33;14.82;;;;;;;;;;5070139;28;20643;-57
2020/12/09 03:54:11;;;;;;;16.02;14.32;;;;;;;;;;5060410;28;20276;-57
2020/12/09 03:56:37;;;;;;;16.77;15.13;;;;;;;;;;5068442;28;20174;-58
2020/12/09 03:59:02;;;;;;;15.60;14.00;;;;;;;;;;5061031;28;20169;-58
2020/12/09 04:01:27;;;;;;;16.60;14.90;;;;;;;;;;5069132;28;20194;-57
2020/12/09 04:03:52;;;;;;;15.80;14.40;;;;;;;;;;5069244;28;20215;-58
2020/12/09 04:06:17;;;;;;;15.60;14.13;;;;;;;;;;5060254;28;20257;-58
2020/12/09 04:08:43;;;;;;;16.27;14.68;;;;;;;;;;5070656;28;20525;-57
2020/12/09 04:11:08;;;;;;;15.45;14.00;;;;;;;;;;5065374;28;20182;-57
2020/12/09 04:13:33;;;;;;;15.10;13.45;;;;;;;;;;5065257;28;20208;-56
2020/12/09 04:15:58;;;;;;;15.88;14.38;;;;;;;;;;5063336;28;20238;-56
2020/12/09 04:18:24;;;;;;;16.88;15.10;;;;;;;;;;5069005;28;20181;-56
2020/12/09 04:20:49;;;;;;;15.20;13.60;;;;;;;;;;5063453;28;20257;-57
2020/12/09 04:23:14;;;;;;;16.10;14.50;;;;;;;;;;5066725;28;20669;-57
2020/12/09 04:25:40;;;;;;;16.02;14.32;;;;;;;;;;5066910;28;20178;-57
2020/12/09 04:28:05;;;;;;;15.73;14.13;;;;;;;;;;5062780;28;20236;-57
2020/12/09 04:30:30;;;;;;;15.70;14.10;;;;;;;;;;5069112;28;20173;-57
2020/12/09 04:32:55;;;;;;;17.30;15.55;;;;;;;;;;5066798;28;20185;-57
2020/12/09 04:35:20;;;;;;;16.27;14.60;;;;;;;;;;5058142;28;20190;-57
2020/12/09 04:37:45;;;;;;;15.10;13.77;;;;;;;;;;5060554;28;20251;-57
2020/12/09 04:40:11;;;;;;;15.83;14.23;;;;;;;;;;5065552;28;20198;-57
2020/12/09 04:42:36;;;;;;;15.13;13.63;;;;;;;;;;5062237;28;20180;-57
2020/12/09 04:45:01;;;;;;;14.90;13.50;;;;;;;;;;5056995;28;20223;-57
2020/12/09 04:47:28;;;;;;;14.97;13.47;;;;;;;;;;5057950;28;20175;-57
2020/12/09 04:50:06;;;;;;;15.57;13.93;;;;;;;;;;5059857;28;20196;-57
2020/12/09 04:52:40;;;;;;;14.30;13.00;;;;;;;;;;5057616;28;21170;-57
2020/12/09 04:55:10;;;;;;;13.70;12.40;;;;;;;;;;5061098;28;20754;-56
2020/12/09 04:57:42;;;;;;;14.73;13.23;;;;;;;;;;5062522;28;20610;-57
2020/12/09 05:00:11;;;;;;;14.37;13.03;;;;;;;;;;5069950;28;20654;-57
2020/12/09 05:02:51;;;;;;;13.80;12.40;;;;;;;;;;5067119;28;20633;-57
2020/12/09 05:05:17;;;;;;;13.30;12.10;;;;;;;;;;5066847;28;20601;-57
2020/12/09 05:07:46;;;;;;;15.27;13.77;;;;;;;;;;5068612;28;21174;-58
2020/12/09 05:10:12;;;;;;;14.80;13.30;;;;;;;;;;5075642;28;20684;-57
2020/12/09 05:12:40;;;;;;;14.20;12.73;;;;;;;;;;5067877;28;20911;-57
2020/12/09 05:15:06;;;;;;;14.07;12.67;;;;;;;;;;5065770;28;20593;-57
2020/12/09 05:17:33;;;;;;;14.67;13.07;;;;;;;;;;5066301;28;20737;-57
2020/12/09 05:19:58;;;;;;;14.13;12.83;;;;;;;;;;5067423;28;20761;-57
2020/12/09 05:22:24;;;;;;;13.83;12.43;;;;;;;;;;5066928;28;20658;-57
2020/12/09 05:24:49;;;;;;;13.50;12.17;;;;;;;;;;5068232;28;20293;-55
2020/12/09 05:27:15;;;;;;;14.33;12.93;;;;;;;;;;5064326;28;20183;-56
2020/12/09 05:29:43;;;;;;;14.90;13.40;;;;;;;;;;5063018;28;20187;-56
2020/12/09 05:32:08;;;;;;;15.23;13.63;;;;;;;;;;5055299;28;20183;-56
2020/12/09 05:34:34;;;;;;;15.57;13.97;;;;;;;;;;5058383;28;21307;-56
2020/12/09 05:37:00;;;;;;;14.30;12.90;;;;;;;;;;5055747;28;20638;-57
2020/12/09 05:39:26;;;;;;;14.30;12.97;;;;;;;;;;5058487;28;20176;-56
2020/12/09 05:41:51;;;;;;;14.30;12.23;;;;;;;;;;5059112;28;21162;-56
2020/12/09 05:44:17;;;;;;;14.53;13.13;;;;;;;;;;5060044;28;20803;-57
2020/12/09 05:46:55;;;;;;;14.53;13.23;;;;;;;;;;5061519;28;20446;-56
2020/12/09 05:49:21;;;;;;;14.17;12.77;;;;;;;;;;5053988;28;20595;-56
2020/12/09 05:52:03;;;;;;;14.30;13.00;;;;;;;;;;5058026;28;20689;-56
2020/12/09 05:54:28;;;;;;;14.00;12.63;;;;;;;;;;5057381;28;20637;-57
2020/12/09 05:56:55;;;;;;;13.70;12.40;;;;;;;;;;5058352;28;21642;-57
2020/12/09 05:59:30;;;;;;;12.97;11.77;;;;;;;;;;5054775;28;20739;-57
2020/12/09 06:02:04;;;;;;;12.90;11.70;;;;;;;;;;5059729;28;20616;-57
2020/12/09 06:04:42;;;;;;;13.60;12.23;;;;;;;;;;5063453;28;20648;-57
2020/12/09 06:07:09;;;;;;;14.30;12.80;;;;;;;;;;5060959;28;20606;-57
2020/12/09 06:09:34;;;;;;;18.43;14.23;;;;;;;;;;5068995;28;21174;-57
2020/12/09 06:12:02;;;;;;;13.20;12.02;;;;;;;;;;5069093;28;21124;-57
2020/12/09 06:14:27;;;;;;;13.93;12.63;;;;;;;;;;5060735;28;20264;-57
2020/12/09 06:16:52;;;;;;;13.68;12.40;;;;;;;;;;5065743;28;20682;-56
2020/12/09 06:19:17;;;;;;;13.45;12.25;;;;;;;;;;5067312;28;20225;-56
2020/12/09 06:21:42;;;;;;;14.50;13.10;;;;;;;;;;5070218;28;20183;-56
2020/12/09 06:24:07;;;;;;;14.70;13.20;;;;;;;;;;5071119;28;20203;-57
2020/12/09 06:26:32;;;;;;;13.77;12.40;;;;;;;;;;5068410;28;20190;-57
2020/12/09 06:28:58;;;;;;;14.13;12.75;;;;;;;;;;5069707;28;20180;-57
2020/12/09 06:31:23;;;;;;;14.65;13.20;;;;;;;;;;5071702;28;20194;-57
2020/12/09 06:33:52;;;;;;;14.07;12.63;;;;;;;;;;5071981;28;20544;-57
2020/12/09 06:36:17;;;;;;;14.10;12.90;;;;;;;;;;5069314;28;20186;-57
2020/12/09 06:39:02;;;;;;;12.77;11.53;;;;;;;;;;5070652;28;20603;-57
2020/12/09 06:41:27;;;;;;;13.90;12.40;;;;;;;;;;5071175;28;20604;-57
2020/12/09 06:44:18;;;;;;;13.90;12.53;;;;;;;;;;5071131;28;20643;-56
2020/12/09 06:46:48;;;;;;;13.90;12.50;;;;;;;;;;5060558;28;20654;-57
2020/12/09 06:49:29;;;;;;;13.47;12.27;;;;;;;;;;5066335;28;20645;-57
2020/12/09 06:51:56;;;;;;;13.07;11.80;;;;;;;;;;5060589;28;20615;-57
2020/12/09 06:54:35;;;;;;;13.47;12.13;;;;;;;;;;5070981;28;21004;-57
2020/12/09 06:57:17;;;;;;;14.57;13.20;;;;;;;;;;5067457;28;20626;-57
2020/12/09 06:59:43;;;;;;;14.20;12.80;;;;;;;;;;5064997;28;21239;-57
2020/12/09 07:02:08;;;;;;;13.80;12.40;;;;;;;;;;5070956;28;20691;-57
2020/12/09 07:04:52;;;;;;;13.03;11.70;;;;;;;;;;5069996;28;21464;-55
2020/12/09 07:07:26;;;;;;;13.97;12.57;;;;;;;;;;5067949;28;20546;-56
2020/12/09 07:09:51;;;;;;;13.33;12.03;;;;;;;;;;5063148;28;20964;-55
2020/12/09 07:12:23;;;;;;;12.90;11.60;;;;;;;;;;5071999;28;20608;-56
2020/12/09 07:14:52;;;;;;;12.57;11.37;;;;;;;;;;5062963;28;20169;-55
2020/12/09 07:17:17;;;;;;;13.43;12.03;;;;;;;;;;5062322;28;20763;-55
2020/12/09 07:19:42;;;;;;;12.43;11.03;;;;;;;;;;5069382;28;20701;-56
2020/12/09 07:22:08;;;;;;;12.00;11.00;;;;;;;;;;5070787;28;20207;-56
2020/12/09 07:24:33;;;;;;;12.13;11.07;;;;;;;;;;5069369;28;20202;-56
2020/12/09 07:26:58;;;;;;;14.70;11.03;;;;;;;;;;5055250;28;20267;-57
2020/12/09 07:29:23;;;;;;;15.50;14.13;;;;;;;;;;5071132;28;20552;-56
2020/12/09 07:31:48;;;;;;;17.40;13.20;;;;;;;;;;5068168;28;20184;-56
2020/12/09 07:34:14;;;;;;;12.60;11.50;;;;;;;;;;5069040;28;20713;-56
2020/12/09 07:36:52;;;;;;;12.95;11.68;;;;;;;;;;5065060;28;20826;-57
2020/12/09 07:39:30;;;;;;;12.33;11.13;;;;;;;;;;5057820;28;20199;-57
2020/12/09 07:41:57;;;;;;;11.27;10.17;;;;;;;;;;5060934;28;20600;-57
2020/12/09 07:44:22;;;;;;;11.80;10.60;;;;;;;;;;5064320;28;20647;-58
2020/12/09 07:46:57;;;;;;;11.50;10.43;;;;;;;;;;5062559;28;21209;-57
2020/12/09 07:49:23;;;;;;;11.33;10.23;;;;;;;;;;5069198;28;20239;-57
2020/12/09 07:51:48;;;;;;;12.43;11.13;;;;;;;;;;5069856;28;20603;-58
2020/12/09 07:54:14;;;;;;;11.03;10.03;;;;;;;;;;5069888;28;20707;-57
2020/12/09 07:56:39;;;;;;;11.13;10.13;;;;;;;;;;5068369;28;20179;-57
2020/12/09 07:59:04;;;;;;;11.43;10.40;;;;;;;;;;5068268;28;20176;-57
2020/12/09 08:01:29;;;;;;;11.93;10.82;;;;;;;;;;5069023;28;20191;-57
2020/12/09 08:03:54;;;;;;;11.35;10.30;;;;;;;;;;5069439;28;20200;-57
2020/12/09 08:06:23;;;;;;;10.90;9.85;;;;;;;;;;5064032;28;20179;-57
2020/12/09 08:08:50;;;;;;;11.80;10.70;;;;;;;;;;5067344;28;20182;-57
2020/12/09 08:11:15;;;;;;;11.23;10.23;;;;;;;;;;5069572;28;20637;-58
2020/12/09 08:13:40;;;;;;;11.60;10.60;;;;;;;;;;5069957;28;20626;-57
2020/12/09 08:16:08;;;;;;;11.45;10.32;;;;;;;;;;5066091;28;20228;-57
2020/12/09 08:18:33;;;;;;;12.43;11.33;;;;;;;;;;5066027;28;20200;-57
2020/12/09 08:20:59;;;;;;;12.90;11.60;;;;;;;;;;5069171;28;20930;-57
2020/12/09 08:23:37;;;;;;;10.38;9.38;;;;;;;;;;5069375;28;20640;-57
2020/12/09 08:26:02;;;;;;;14.97;12.20;;;;;;;;;;5064953;28;20178;-57
2020/12/09 08:28:27;;;;;;;12.63;11.43;;;;;;;;;;5065700;28;20603;-57
2020/12/09 08:30:53;;;;;;;11.50;10.40;;;;;;;;;;5068562;28;20654;-58
2020/12/09 08:33:20;;;;;;;12.50;11.30;;;;;;;;;;5069762;28;20229;-55
2020/12/09 08:35:57;;;;;;;12.40;11.20;;;;;;;;;;5067606;28;20177;-55
2020/12/09 08:38:24;;;;;;;11.80;10.60;;;;;;;;;;5066545;28;20602;-58
2020/12/09 08:40:50;;;;;;;10.83;9.77;;;;;;;;;;5068519;28;20604;-57
2020/12/09 08:43:15;;;;;;;11.13;10.03;;;;;;;;;;5068647;28;20610;-57
2020/12/09 08:45:43;;;;;;;10.43;9.60;;;;;;;;;;5065426;28;20596;-57
2020/12/09 08:48:08;;;;;;;10.27;9.27;;;;;;;;;;5069775;28;20187;-57
2020/12/09 08:50:33;;;;;;;11.10;9.27;;;;;;;;;;5066630;28;20594;-57
2020/12/09 08:52:58;;;;;;;10.75;9.32;;;;;;;;;;5069409;28;20234;-58
2020/12/09 08:55:23;;;;;;;9.98;9.07;;;;;;;;;;5073690;28;20174;-57
2020/12/09 08:57:48;;;;;;;10.73;9.82;;;;;;;;;;5062252;28;20209;-58
2020/12/09 09:00:14;;;;;;;10.40;9.40;;;;;;;;;;5066708;28;20206;-57
2020/12/09 09:02:41;;;;;;;9.90;9.00;;;;;;;;;;5067902;28;20172;-58
2020/12/09 09:05:06;;;;;;;9.90;9.00;;;;;;;;;;5060681;28;20205;-57
2020/12/09 09:07:32;;;;;;;11.18;10.18;;;;;;;;;;5067153;28;20582;-58
2020/12/09 09:09:57;;;;;;;9.90;8.90;;;;;;;;;;5069319;28;20679;-57
2020/12/09 09:12:22;;;;;;;9.57;8.77;;;;;;;;;;5069105;28;20639;-58
2020/12/09 09:14:47;;;;;;;9.97;9.13;;;;;;;;;;5071024;28;20182;-58
2020/12/09 09:17:12;;;;;;;10.60;9.50;;;;;;;;;;5070112;28;20237;-57
2020/12/09 09:19:38;;;;;;;9.07;8.27;;;;;;;;;;5073250;28;20181;-58
2020/12/09 09:22:03;;;;;;;9.25;8.45;;;;;;;;;;5073045;28;20183;-57
2020/12/09 09:24:28;;;;;;;10.47;9.47;;;;;;;;;;5072243;28;20208;-57
2020/12/09 09:26:53;;;;;;;10.10;8.70;;;;;;;;;;5071428;28;20176;-57
2020/12/09 09:29:18;;;;;;;8.80;8.00;;;;;;;;;;5072811;28;20259;-57
2020/12/09 09:31:43;;;;;;;10.38;8.80;;;;;;;;;;5073058;28;20167;-57
2020/12/09 09:34:09;;;;;;;9.37;8.00;;;;;;;;;;5072936;28;20167;-57
2020/12/09 09:36:34;;;;;;;10.43;9.43;;;;;;;;;;5067148;28;20652;-57
2020/12/09 09:38:59;;;;;;;9.90;8.90;;;;;;;;;;5072933;28;20185;-57
2020/12/09 09:41:24;;;;;;;10.07;8.00;;;;;;;;;;5072731;28;20179;-57
2020/12/09 09:43:49;;;;;;;10.20;9.20;;;;;;;;;;5072724;28;20404;-57
2020/12/09 09:46:14;;;;;;;10.47;9.57;;;;;;;;;;5067500;28;20871;-57
2020/12/09 09:48:40;;;;;;;8.10;7.40;;;;;;;;;;5069034;28;20240;-57
2020/12/09 09:51:05;;;;;;;9.23;8.20;;;;;;;;;;5072499;28;20184;-57
2020/12/09 09:53:31;;;;;;;9.10;8.30;;;;;;;;;;5072576;28;20182;-57
2020/12/09 09:55:56;;;;;;;8.80;8.00;;;;;;;;;;5071610;28;20174;-56
2020/12/09 09:58:21;;;;;;;9.05;8.10;;;;;;;;;;5066751;28;20232;-56
2020/12/09 10:00:46;;;;;;;9.50;8.57;;;;;;;;;;5072226;28;20182;-57
2020/12/09 10:03:11;;;;;;;10.25;8.90;;;;;;;;;;5071992;28;20183;-57
2020/12/09 10:05:36;;;;;;;9.23;8.43;;;;;;;;;;5071876;28;20722;-57
2020/12/09 10:08:02;;;;;;;9.83;8.93;;;;;;;;;;5069312;28;20179;-57
2020/12/09 10:10:27;;;;;;;10.10;9.20;;;;;;;;;;5072208;28;20163;-57
2020/12/09 10:12:52;;;;;;;10.07;8.98;;;;;;;;;;5071987;28;20176;-57
2020/12/09 10:15:17;;;;;;;10.00;9.10;;;;;;;;;;5071668;28;20399;-56
2020/12/09 10:17:43;;;;;;;10.97;8.20;;;;;;;;;;5066802;28;20258;-57
2020/12/09 10:20:08;;;;;;;9.68;8.75;;;;;;;;;;5072053;28;20258;-56
2020/12/09 10:22:33;;;;;;;9.00;8.10;;;;;;;;;;5072215;28;20197;-56
2020/12/09 10:24:58;;;;;;;9.50;8.70;;;;;;;;;;5071432;28;20297;-57
2020/12/09 10:27:23;;;;;;;9.90;9.00;;;;;;;;;;5069971;28;20170;-58
2020/12/09 10:29:49;;;;;;;9.95;9.02;;;;;;;;;;5065031;28;20167;-58
2020/12/09 10:32:14;;;;;;;9.80;8.73;;;;;;;;;;5070626;28;20173;-58
2020/12/09 10:34:40;;;;;;;8.93;8.13;;;;;;;;;;5071632;28;20174;-58
2020/12/09 10:37:06;;;;;;;8.03;7.33;;;;;;;;;;5071359;28;20183;-58
2020/12/09 10:39:31;;;;;;;9.33;8.50;;;;;;;;;;5069177;28;20616;-57
2020/12/09 10:41:56;;;;;;;7.87;7.27;;;;;;;;;;5071434;28;20548;-58
2020/12/09 10:44:21;;;;;;;7.53;6.90;;;;;;;;;;5071539;28;20203;-58
2020/12/09 10:46:47;;;;;;;8.68;7.88;;;;;;;;;;5071722;28;20172;-57
2020/12/09 10:49:15;;;;;;;8.27;7.47;;;;;;;;;;5068942;28;20228;-58
2020/12/09 10:51:46;;;;;;;7.90;7.20;;;;;;;;;;5071500;28;20170;-58
2020/12/09 10:54:11;;;;;;;7.50;6.90;;;;;;;;;;5071231;28;20612;-58
2020/12/09 10:56:37;;;;;;;8.33;7.63;;;;;;;;;;5069331;28;21140;-58
2020/12/09 10:59:02;;;;;;;9.02;7.78;;;;;;;;;;5070157;28;20246;-58
2020/12/09 11:01:29;;;;;;;7.67;7.03;;;;;;;;;;5071374;28;20191;-58
2020/12/09 11:03:55;;;;;;;7.87;7.17;;;;;;;;;;5071128;28;20709;-58
2020/12/09 11:06:30;;;;;;;7.23;6.63;;;;;;;;;;5070595;28;20700;-58
2020/12/09 11:08:56;;;;;;;8.13;7.33;;;;;;;;;;5059638;28;20174;-56
2020/12/09 11:11:21;;;;;;;7.47;6.87;;;;;;;;;;5071078;28;20676;-57
2020/12/09 11:13:47;;;;;;;8.10;7.40;;;;;;;;;;5071076;28;20697;-56
2020/12/09 11:16:15;;;;;;;7.30;6.70;;;;;;;;;;5070449;28;20726;-56
2020/12/09 11:18:41;;;;;;;8.80;8.10;;;;;;;;;;5066547;28;20626;-57
2020/12/09 11:21:06;;;;;;;7.37;6.67;;;;;;;;;;5070502;28;20641;-56
2020/12/09 11:23:32;;;;;;;8.17;7.47;;;;;;;;;;5070847;28;20697;-57
2020/12/09 11:25:57;;;;;;;7.23;6.63;;;;;;;;;;5070044;28;20163;-58
2020/12/09 11:28:22;;;;;;;7.38;6.68;;;;;;;;;;5063253;28;20928;-57
2020/12/09 11:30:47;;;;;;;7.43;6.82;;;;;;;;;;5058642;28;20172;-57
2020/12/09 11:33:12;;;;;;;7.95;7.15;;;;;;;;;;5070264;28;20221;-57
2020/12/09 11:35:38;;;;;;;7.78;6.97;;;;;;;;;;5070452;28;20208;-58
2020/12/09 11:38:03;;;;;;;8.55;7.75;;;;;;;;;;5064461;28;20174;-57
2020/12/09 11:40:28;;;;;;;8.02;7.32;;;;;;;;;;5074724;28;20526;-57
2020/12/09 11:42:54;;;;;;;6.90;6.20;;;;;;;;;;5070624;28;20176;-57
2020/12/09 11:45:20;;;;;;;7.97;7.27;;;;;;;;;;5069905;28;20706;-56
2020/12/09 11:47:45;;;;;;;8.17;7.37;;;;;;;;;;5068594;28;20675;-56
2020/12/09 11:50:10;;;;;;;8.30;7.57;;;;;;;;;;5069117;28;20164;-57
2020/12/09 11:52:35;;;;;;;8.33;7.53;;;;;;;;;;5069784;28;20208;-57
2020/12/09 11:55:00;;;;;;;8.23;7.40;;;;;;;;;;5070247;28;20183;-57
2020/12/09 11:57:25;;;;;;;8.67;7.77;;;;;;;;;;5065970;28;20286;-57
2020/12/09 11:59:50;;;;;;;9.40;8.50;;;;;;;;;;5059481;28;20183;-58
2020/12/09 12:02:16;;;;;;;8.55;7.82;;;;;;;;;;5067072;28;20197;-57
2020/12/09 12:04:41;;;;;;;7.95;7.25;;;;;;;;;;5069887;28;20226;-56
2020/12/09 12:07:06;;;;;;;7.80;7.10;;;;;;;;;;5067982;28;20193;-56
2020/12/09 12:09:32;;;;;;;8.13;7.43;;;;;;;;;;5064722;28;20187;-57
2020/12/09 12:11:57;;;;;;;8.60;7.90;;;;;;;;;;5068230;28;20589;-57
2020/12/09 12:14:22;;;;;;;9.90;8.67;;;;;;;;;;5069628;28;20221;-57
2020/12/09 12:16:47;;;;;;;9.83;8.83;;;;;;;;;;5069608;28;20578;-57
2020/12/09 12:19:17;;;;;;;9.10;8.30;;;;;;;;;;5062767;28;20180;-57
2020/12/09 12:21:42;;;;;;;8.57;7.10;;;;;;;;;;5068960;28;20186;-57
2020/12/09 12:24:07;;;;;;;8.57;7.87;;;;;;;;;;5064946;28;20630;-57
2020/12/09 12:26:32;;;;;;;9.20;8.10;;;;;;;;;;5069373;28;20186;-56
2020/12/09 12:28:57;;;;;;;9.00;7.47;;;;;;;;;;5059118;28;20242;-57
2020/12/09 12:31:22;;;;;;;8.38;7.57;;;;;;;;;;5060232;28;20254;-57
2020/12/09 12:33:48;;;;;;;9.77;8.80;;;;;;;;;;5068335;28;20221;-57
2020/12/09 12:36:13;;;;;;;9.17;8.30;;;;;;;;;;5069445;28;20188;-57
2020/12/09 12:38:38;;;;;;;8.47;7.70;;;;;;;;;;5061833;28;20188;-58
2020/12/09 12:41:04;;;;;;;9.20;8.30;;;;;;;;;;5069294;28;20182;-58
2020/12/09 12:43:30;;;;;;;9.30;8.50;;;;;;;;;;5063141;28;20292;-57
2020/12/09 12:45:55;;;;;;;9.17;8.27;;;;;;;;;;5069303;28;21187;-57
2020/12/09 12:48:20;;;;;;;9.13;8.27;;;;;;;;;;5066247;28;20543;-57
2020/12/09 12:50:45;;;;;;;9.05;8.25;;;;;;;;;;5068757;28;20172;-59
2020/12/09 12:53:10;;;;;;;8.47;7.67;;;;;;;;;;5067259;28;20203;-57
2020/12/09 12:55:36;;;;;;;8.40;7.60;;;;;;;;;;5062031;28;20637;-56
2020/12/09 12:58:01;;;;;;;8.83;8.13;;;;;;;;;;5067036;28;20197;-57
2020/12/09 13:00:26;;;;;;;9.07;8.17;;;;;;;;;;5069131;28;20586;-57
2020/12/09 13:02:52;;;;;;;9.15;8.35;;;;;;;;;;5068656;28;20255;-57
2020/12/09 13:05:17;;;;;;;9.52;8.63;;;;;;;;;;5062075;28;20195;-57
2020/12/09 13:07:43;;;;;;;9.38;8.57;;;;;;;;;;5066605;28;20178;-57
2020/12/09 13:10:08;;;;;;;10.87;9.77;;;;;;;;;;5068546;28;20226;-57
2020/12/09 13:12:33;;;;;;;9.73;8.77;;;;;;;;;;5069001;28;20601;-56
2020/12/09 13:14:59;;;;;;;9.33;7.70;;;;;;;;;;5064158;28;20589;-57
2020/12/09 13:17:24;;;;;;;8.82;8.02;;;;;;;;;;5066987;28;20225;-57
2020/12/09 13:19:49;;;;;;;9.40;8.60;;;;;;;;;;5069163;28;20184;-57
2020/12/09 13:22:14;;;;;;;9.90;8.90;;;;;;;;;;5068703;28;20193;-57
2020/12/09 13:24:39;;;;;;;9.45;8.57;;;;;;;;;;5068922;28;20289;-57
2020/12/09 13:27:06;;;;;;;9.95;8.88;;;;;;;;;;5075526;28;20186;-57
2020/12/09 13:29:32;;;;;;;10.10;9.10;;;;;;;;;;5067348;28;20176;-57
2020/12/09 13:31:57;;;;;;;10.13;9.23;;;;;;;;;;5068932;28;20596;-57
2020/12/09 13:34:22;;;;;;;10.35;9.43;;;;;;;;;;5068649;28;20182;-57
2020/12/09 13:36:47;;;;;;;10.93;9.57;;;;;;;;;;5064795;28;20197;-57
2020/12/09 13:39:12;;;;;;;9.65;8.75;;;;;;;;;;5066836;28;20178;-57
2020/12/09 13:41:38;;;;;;;9.32;8.43;;;;;;;;;;5068693;28;20538;-57
2020/12/09 13:44:04;;;;;;;9.57;8.67;;;;;;;;;;5068940;28;20334;-56
2020/12/09 13:46:29;;;;;;;9.60;8.30;;;;;;;;;;5067924;28;20701;-56
2020/12/09 13:48:54;;;;;;;8.93;8.02;;;;;;;;;;5064446;28;20163;-57
2020/12/09 13:51:19;;;;;;;9.33;8.53;;;;;;;;;;5068455;28;20176;-57
2020/12/09 13:53:45;;;;;;;9.50;8.60;;;;;;;;;;5068783;28;20674;-57
2020/12/09 13:56:10;;;;;;;8.32;7.63;;;;;;;;;;5068753;28;20178;-58
2020/12/09 13:58:35;;;;;;;9.20;8.40;;;;;;;;;;5060456;28;20203;-58
2020/12/09 14:01:00;;;;;;;8.73;7.93;;;;;;;;;;5070771;28;20579;-58
2020/12/09 14:03:25;;;;;;;10.20;9.30;;;;;;;;;;5071573;28;20275;-57
2020/12/09 14:05:51;;;;;;;8.37;7.67;;;;;;;;;;5072269;28;20264;-57
2020/12/09 14:08:16;;;;;;;7.97;7.27;;;;;;;;;;5067278;28;20173;-57
2020/12/09 14:10:41;;;;;;;8.70;7.90;;;;;;;;;;5072220;28;20265;-57
2020/12/09 14:13:06;;;;;;;8.50;7.70;;;;;;;;;;5072086;28;20291;-57
2020/12/09 14:15:32;;;;;;;9.90;9.00;;;;;;;;;;5071927;28;20686;-57
2020/12/09 14:17:57;;;;;;;8.33;7.53;;;;;;;;;;5069079;28;20190;-57
2020/12/09 14:20:22;;;;;;;8.30;7.50;;;;;;;;;;5072120;28;20233;-58